ACA764 CYYZ-KBOS
Flight info
| Callsign | ACA764 |
|---|---|
| Flight time | 1h 8m |
| Altitude | 37000 |
| Route | KEPTA3 BMPAH DCT AEVON DCT HANKK DCT PONCT JFUND2 |
| Aircraft | A320/M-SDE3FGHIRWY/LB1 |
Departure
| Time | 2026-05-05 22:42 |
|---|---|
| Airport | Toronto Pearson International Airport (CYYZ) |
Arrival
| Time | 2026-05-05 23:50 |
|---|---|
| Airport | Boston Logan International Airport (KBOS) |
| Time | Latitude | Longitude | Altitude | Speed | Heading |
|---|---|---|---|---|---|
| 2026-05-05 22:07 | 43.68028 | -79.61713 | 568 ft | 0 kts | 136° |
| 2026-05-05 22:32 | 43.68039 | -79.61728 | 571 ft | 4 kts | 136° |
| 2026-05-05 22:32 | 43.68057 | -79.61752 | 566 ft | 2 kts | 136° |
| 2026-05-05 22:32 | 43.68076 | -79.61769 | 565 ft | 4 kts | 175° |
| 2026-05-05 22:33 | 43.68101 | -79.61763 | 567 ft | 4 kts | 214° |
| 2026-05-05 22:33 | 43.68109 | -79.61754 | 569 ft | 1 kts | 226° |
| 2026-05-05 22:36 | 43.68099 | -79.61770 | 571 ft | 8 kts | 227° |
| 2026-05-05 22:36 | 43.68048 | -79.61844 | 567 ft | 12 kts | 227° |
| 2026-05-05 22:36 | 43.67993 | -79.61943 | 563 ft | 14 kts | 253° |
| 2026-05-05 22:37 | 43.67943 | -79.62065 | 565 ft | 16 kts | 225° |
| 2026-05-05 22:37 | 43.67880 | -79.62149 | 563 ft | 10 kts | 212° |
| 2026-05-05 22:37 | 43.67827 | -79.62115 | 566 ft | 8 kts | 137° |
| 2026-05-05 22:37 | 43.67754 | -79.62022 | 566 ft | 17 kts | 137° |
| 2026-05-05 22:38 | 43.67672 | -79.61914 | 566 ft | 16 kts | 134° |
| 2026-05-05 22:38 | 43.67597 | -79.61816 | 567 ft | 14 kts | 135° |
| 2026-05-05 22:38 | 43.67529 | -79.61728 | 568 ft | 13 kts | 137° |
| 2026-05-05 22:38 | 43.67456 | -79.61632 | 573 ft | 18 kts | 138° |
| 2026-05-05 22:39 | 43.67369 | -79.61519 | 565 ft | 17 kts | 137° |
| 2026-05-05 22:39 | 43.67285 | -79.61409 | 564 ft | 16 kts | 137° |
| 2026-05-05 22:39 | 43.67230 | -79.61343 | 564 ft | 6 kts | 153° |
| 2026-05-05 22:39 | 43.67197 | -79.61343 | 570 ft | 3 kts | 201° |
| 2026-05-05 22:40 | 43.67169 | -79.61372 | 568 ft | 8 kts | 220° |
| 2026-05-05 22:40 | 43.67129 | -79.61425 | 569 ft | 8 kts | 224° |
| 2026-05-05 22:40 | 43.67102 | -79.61485 | 567 ft | 7 kts | 279° |
| 2026-05-05 22:40 | 43.67150 | -79.61546 | 566 ft | 11 kts | 316° |
| 2026-05-05 22:41 | 43.67219 | -79.61637 | 567 ft | 20 kts | 317° |
| 2026-05-05 22:41 | 43.67483 | -79.61984 | 571 ft | 90 kts | 317° |
| 2026-05-05 22:41 | 43.68093 | -79.62782 | 572 ft | 150 kts | 316° |
| 2026-05-05 22:41 | 43.68912 | -79.63832 | 1052 ft | 163 kts | 314° |
| 2026-05-05 22:42 | 43.69759 | -79.64887 | 1957 ft | 164 kts | 310° |
| 2026-05-05 22:42 | 43.70672 | -79.65909 | 2508 ft | 185 kts | 328° |
| 2026-05-05 22:42 | 43.72055 | -79.66015 | 2861 ft | 222 kts | 16° |
| 2026-05-05 22:42 | 43.73450 | -79.64865 | 3327 ft | 243 kts | 32° |
| 2026-05-05 22:43 | 43.74908 | -79.63460 | 3697 ft | 270 kts | 32° |
| 2026-05-05 22:43 | 43.76531 | -79.61924 | 4278 ft | 291 kts | 31° |
| 2026-05-05 22:43 | 43.78185 | -79.60245 | 5094 ft | 302 kts | 40° |
| 2026-05-05 22:43 | 43.79401 | -79.57878 | 6119 ft | 309 kts | 70° |
| 2026-05-05 22:44 | 43.79642 | -79.54937 | 7026 ft | 309 kts | 101° |
| 2026-05-05 22:44 | 43.79089 | -79.52087 | 7945 ft | 307 kts | 118° |
| 2026-05-05 22:44 | 43.78041 | -79.49550 | 8877 ft | 303 kts | 135° |
| 2026-05-05 22:44 | 43.76698 | -79.47294 | 9820 ft | 305 kts | 137° |
| 2026-05-05 22:45 | 43.75317 | -79.45005 | 10429 ft | 320 kts | 137° |
| 2026-05-05 22:45 | 43.73828 | -79.42572 | 10816 ft | 341 kts | 137° |
| 2026-05-05 22:45 | 43.72269 | -79.40028 | 11513 ft | 350 kts | 137° |
| 2026-05-05 22:45 | 43.70685 | -79.37443 | 12287 ft | 356 kts | 137° |
| 2026-05-05 22:46 | 43.69072 | -79.34817 | 13077 ft | 361 kts | 137° |
| 2026-05-05 22:46 | 43.67433 | -79.32148 | 13856 ft | 366 kts | 137° |
| 2026-05-05 22:46 | 43.65680 | -79.29590 | 14546 ft | 365 kts | 146° |
| 2026-05-05 22:46 | 43.63664 | -79.27514 | 15259 ft | 361 kts | 156° |
| 2026-05-05 22:47 | 43.61458 | -79.25838 | 15966 ft | 362 kts | 159° |
| 2026-05-05 22:47 | 43.59227 | -79.24181 | 16678 ft | 366 kts | 159° |
| 2026-05-05 22:47 | 43.56977 | -79.22511 | 17378 ft | 370 kts | 159° |
| 2026-05-05 22:47 | 43.54695 | -79.20818 | 18071 ft | 374 kts | 159° |
| 2026-05-05 22:48 | 43.52388 | -79.19105 | 18654 ft | 379 kts | 159° |
| 2026-05-05 22:48 | 43.50056 | -79.17374 | 19235 ft | 383 kts | 159° |
| 2026-05-05 22:48 | 43.47717 | -79.15567 | 19819 ft | 390 kts | 154° |
| 2026-05-05 22:48 | 43.45553 | -79.13228 | 20390 ft | 403 kts | 142° |
| 2026-05-05 22:49 | 43.43770 | -79.10419 | 20945 ft | 414 kts | 130° |
| 2026-05-05 22:49 | 43.42306 | -79.06947 | 21522 ft | 425 kts | 118° |
| 2026-05-05 22:49 | 43.41160 | -79.03230 | 22088 ft | 430 kts | 116° |
| 2026-05-05 22:49 | 43.39991 | -78.99429 | 22682 ft | 433 kts | 116° |
| 2026-05-05 22:50 | 43.38799 | -78.95582 | 23252 ft | 437 kts | 116° |
| 2026-05-05 22:50 | 43.37602 | -78.91729 | 23749 ft | 441 kts | 116° |
| 2026-05-05 22:50 | 43.36386 | -78.87834 | 24223 ft | 445 kts | 116° |
| 2026-05-05 22:50 | 43.35164 | -78.83929 | 24710 ft | 448 kts | 116° |
| 2026-05-05 22:51 | 43.33925 | -78.79976 | 25181 ft | 451 kts | 116° |
| 2026-05-05 22:51 | 43.32681 | -78.76014 | 25641 ft | 453 kts | 116° |
| 2026-05-05 22:51 | 43.31434 | -78.72038 | 26094 ft | 456 kts | 116° |
| 2026-05-05 22:51 | 43.30176 | -78.68029 | 26536 ft | 459 kts | 116° |
| 2026-05-05 22:52 | 43.28908 | -78.63996 | 26970 ft | 462 kts | 116° |
| 2026-05-05 22:52 | 43.27628 | -78.59932 | 27405 ft | 464 kts | 116° |
| 2026-05-05 22:52 | 43.26337 | -78.55845 | 27828 ft | 467 kts | 116° |
| 2026-05-05 22:52 | 43.25039 | -78.51744 | 28257 ft | 469 kts | 116° |
| 2026-05-05 22:53 | 43.23751 | -78.47684 | 28657 ft | 472 kts | 116° |
| 2026-05-05 22:53 | 43.22420 | -78.43493 | 29072 ft | 474 kts | 116° |
| 2026-05-05 22:53 | 43.21115 | -78.39395 | 29461 ft | 477 kts | 115° |
| 2026-05-05 22:53 | 43.19770 | -78.35256 | 29846 ft | 478 kts | 118° |
| 2026-05-05 22:54 | 43.18106 | -78.31284 | 30166 ft | 478 kts | 127° |
| 2026-05-05 22:54 | 43.16087 | -78.27675 | 30467 ft | 478 kts | 133° |
| 2026-05-05 22:54 | 43.13979 | -78.24168 | 30756 ft | 480 kts | 133° |
| 2026-05-05 22:54 | 43.11851 | -78.20617 | 31037 ft | 483 kts | 132° |
| 2026-05-05 22:55 | 43.09718 | -78.17049 | 31310 ft | 485 kts | 132° |
| 2026-05-05 22:55 | 43.07574 | -78.13456 | 31583 ft | 488 kts | 132° |
| 2026-05-05 22:55 | 43.05425 | -78.09853 | 31953 ft | 488 kts | 132° |
| 2026-05-05 22:55 | 43.03280 | -78.06266 | 32332 ft | 487 kts | 132° |
| 2026-05-05 22:56 | 43.01129 | -78.02674 | 32720 ft | 487 kts | 132° |
| 2026-05-05 22:56 | 42.98981 | -77.99098 | 33113 ft | 487 kts | 132° |
| 2026-05-05 22:56 | 42.96830 | -77.95526 | 33491 ft | 487 kts | 132° |
| 2026-05-05 22:56 | 42.94784 | -77.91834 | 33854 ft | 489 kts | 124° |
| 2026-05-05 22:57 | 42.93127 | -77.87764 | 34180 ft | 490 kts | 115° |
| 2026-05-05 22:57 | 42.91944 | -77.83417 | 34501 ft | 490 kts | 105° |
| 2026-05-05 22:57 | 42.91252 | -77.78870 | 34820 ft | 488 kts | 95° |
| 2026-05-05 22:57 | 42.91039 | -77.74264 | 35123 ft | 486 kts | 89° |
| 2026-05-05 22:58 | 42.90947 | -77.69663 | 35442 ft | 485 kts | 90° |
| 2026-05-05 22:58 | 42.90839 | -77.65065 | 35752 ft | 485 kts | 90° |
| 2026-05-05 22:58 | 42.90721 | -77.60467 | 36056 ft | 484 kts | 90° |
| 2026-05-05 22:58 | 42.90596 | -77.55884 | 36366 ft | 484 kts | 90° |
| 2026-05-05 22:59 | 42.90469 | -77.51307 | 36672 ft | 483 kts | 90° |
| 2026-05-05 22:59 | 42.90345 | -77.46722 | 36836 ft | 482 kts | 90° |
| 2026-05-05 22:59 | 42.90226 | -77.42167 | 36864 ft | 479 kts | 90° |
| 2026-05-05 23:00 | 42.89869 | -77.28654 | 36860 ft | 476 kts | 90° |
| 2026-05-05 23:00 | 42.89617 | -77.19636 | 36858 ft | 476 kts | 90° |
| 2026-05-05 23:01 | 42.89354 | -77.10613 | 36839 ft | 475 kts | 90° |
| 2026-05-05 23:01 | 42.89075 | -77.01613 | 36837 ft | 475 kts | 90° |
| 2026-05-05 23:02 | 42.88794 | -76.92588 | 36791 ft | 475 kts | 90° |
| 2026-05-05 23:02 | 42.88510 | -76.83590 | 36795 ft | 474 kts | 90° |
| 2026-05-05 23:03 | 42.88218 | -76.74623 | 36786 ft | 474 kts | 90° |
| 2026-05-05 23:03 | 42.87914 | -76.65632 | 36782 ft | 474 kts | 90° |
| 2026-05-05 23:04 | 42.87604 | -76.56635 | 36780 ft | 474 kts | 90° |
| 2026-05-05 23:04 | 42.87287 | -76.47714 | 36783 ft | 474 kts | 90° |
| 2026-05-05 23:05 | 42.86960 | -76.38732 | 36793 ft | 475 kts | 90° |
| 2026-05-05 23:05 | 42.86630 | -76.29745 | 36797 ft | 475 kts | 90° |
| 2026-05-05 23:06 | 42.86295 | -76.20758 | 36795 ft | 475 kts | 91° |
| 2026-05-05 23:06 | 42.85952 | -76.11768 | 36808 ft | 475 kts | 91° |
| 2026-05-05 23:07 | 42.85595 | -76.02762 | 36802 ft | 475 kts | 91° |
| 2026-05-05 23:07 | 42.85242 | -75.93772 | 36801 ft | 476 kts | 91° |
| 2026-05-05 23:08 | 42.84878 | -75.84813 | 36812 ft | 476 kts | 91° |
| 2026-05-05 23:08 | 42.84560 | -75.77268 | 36822 ft | 476 kts | 91° |
| 2026-05-05 23:09 | 42.84181 | -75.68306 | 36823 ft | 476 kts | 91° |
| 2026-05-05 23:09 | 42.83798 | -75.59303 | 36829 ft | 476 kts | 91° |
| 2026-05-05 23:10 | 42.83401 | -75.50301 | 36824 ft | 476 kts | 91° |
| 2026-05-05 23:10 | 42.82998 | -75.41299 | 36823 ft | 476 kts | 91° |
| 2026-05-05 23:11 | 42.82595 | -75.32300 | 36812 ft | 476 kts | 91° |
| 2026-05-05 23:11 | 42.82181 | -75.23297 | 36811 ft | 476 kts | 91° |
| 2026-05-05 23:12 | 42.81759 | -75.14293 | 36803 ft | 476 kts | 91° |
| 2026-05-05 23:12 | 42.81328 | -75.05281 | 36805 ft | 476 kts | 91° |
| 2026-05-05 23:13 | 42.80888 | -74.96296 | 36799 ft | 476 kts | 91° |
| 2026-05-05 23:13 | 42.80665 | -74.91761 | 36623 ft | 483 kts | 91° |
| 2026-05-05 23:13 | 42.80439 | -74.87185 | 36352 ft | 485 kts | 91° |
| 2026-05-05 23:14 | 42.80210 | -74.82602 | 36079 ft | 484 kts | 91° |
| 2026-05-05 23:14 | 42.79979 | -74.78036 | 35821 ft | 482 kts | 91° |
| 2026-05-05 23:14 | 42.79748 | -74.73490 | 35565 ft | 480 kts | 91° |
| 2026-05-05 23:14 | 42.79516 | -74.68964 | 35311 ft | 478 kts | 91° |
| 2026-05-05 23:15 | 42.79285 | -74.64461 | 35050 ft | 476 kts | 91° |
| 2026-05-05 23:15 | 42.79053 | -74.59973 | 34798 ft | 474 kts | 91° |
| 2026-05-05 23:15 | 42.78820 | -74.55516 | 34556 ft | 471 kts | 91° |
| 2026-05-05 23:15 | 42.78589 | -74.51123 | 34317 ft | 469 kts | 91° |
| 2026-05-05 23:16 | 42.78352 | -74.46646 | 34065 ft | 467 kts | 91° |
| 2026-05-05 23:16 | 42.78121 | -74.42296 | 33824 ft | 466 kts | 91° |
| 2026-05-05 23:16 | 42.77884 | -74.37910 | 33550 ft | 464 kts | 91° |
| 2026-05-05 23:16 | 42.77647 | -74.33548 | 33278 ft | 462 kts | 91° |
| 2026-05-05 23:17 | 42.77409 | -74.29197 | 32996 ft | 460 kts | 91° |
| 2026-05-05 23:17 | 42.77171 | -74.24864 | 32726 ft | 458 kts | 91° |
| 2026-05-05 23:17 | 42.76935 | -74.20547 | 32458 ft | 456 kts | 91° |
| 2026-05-05 23:17 | 42.76698 | -74.16245 | 32191 ft | 455 kts | 91° |
| 2026-05-05 23:18 | 42.76461 | -74.11954 | 31921 ft | 453 kts | 91° |
| 2026-05-05 23:18 | 42.76220 | -74.07689 | 31659 ft | 451 kts | 92° |
| 2026-05-05 23:18 | 42.75977 | -74.03445 | 31401 ft | 450 kts | 92° |
| 2026-05-05 23:18 | 42.75739 | -73.99265 | 31158 ft | 448 kts | 92° |
| 2026-05-05 23:19 | 42.75497 | -73.95041 | 30895 ft | 446 kts | 92° |
| 2026-05-05 23:19 | 42.75250 | -73.90844 | 30637 ft | 445 kts | 92° |
| 2026-05-05 23:19 | 42.75001 | -73.86660 | 30389 ft | 443 kts | 92° |
| 2026-05-05 23:19 | 42.74748 | -73.82437 | 30139 ft | 441 kts | 92° |
| 2026-05-05 23:20 | 42.74558 | -73.78337 | 29888 ft | 439 kts | 90° |
| 2026-05-05 23:20 | 42.74480 | -73.74191 | 29609 ft | 437 kts | 88° |
| 2026-05-05 23:20 | 42.74479 | -73.70066 | 29319 ft | 435 kts | 87° |
| 2026-05-05 23:20 | 42.74509 | -73.65955 | 29038 ft | 433 kts | 87° |
| 2026-05-05 23:21 | 42.74539 | -73.61871 | 28747 ft | 431 kts | 87° |
| 2026-05-05 23:21 | 42.74548 | -73.57793 | 28466 ft | 430 kts | 88° |
| 2026-05-05 23:21 | 42.74533 | -73.53740 | 28191 ft | 428 kts | 88° |
| 2026-05-05 23:21 | 42.74498 | -73.49694 | 27911 ft | 426 kts | 89° |
| 2026-05-05 23:22 | 42.74457 | -73.45678 | 27659 ft | 424 kts | 89° |
| 2026-05-05 23:22 | 42.74412 | -73.41667 | 27408 ft | 422 kts | 89° |
| 2026-05-05 23:22 | 42.74364 | -73.37681 | 27155 ft | 420 kts | 89° |
| 2026-05-05 23:22 | 42.74321 | -73.33763 | 26904 ft | 418 kts | 89° |
| 2026-05-05 23:23 | 42.74279 | -73.29817 | 26651 ft | 416 kts | 89° |
| 2026-05-05 23:23 | 42.74238 | -73.25832 | 26393 ft | 414 kts | 89° |
| 2026-05-05 23:23 | 42.74197 | -73.21978 | 26144 ft | 413 kts | 89° |
| 2026-05-05 23:23 | 42.74151 | -73.18075 | 25888 ft | 411 kts | 89° |
| 2026-05-05 23:24 | 42.74107 | -73.14208 | 25631 ft | 409 kts | 89° |
| 2026-05-05 23:24 | 42.73947 | -73.10347 | 25383 ft | 408 kts | 97° |
| 2026-05-05 23:24 | 42.73514 | -73.06539 | 25136 ft | 407 kts | 98° |
| 2026-05-05 23:24 | 42.73076 | -73.02742 | 24886 ft | 405 kts | 98° |
| 2026-05-05 23:25 | 42.72644 | -72.98970 | 24633 ft | 403 kts | 98° |
| 2026-05-05 23:25 | 42.72209 | -72.95211 | 24382 ft | 401 kts | 98° |
| 2026-05-05 23:25 | 42.71775 | -72.91460 | 24140 ft | 399 kts | 99° |
| 2026-05-05 23:25 | 42.71345 | -72.87737 | 23896 ft | 398 kts | 99° |
| 2026-05-05 23:26 | 42.70912 | -72.84028 | 23782 ft | 396 kts | 99° |
| 2026-05-05 23:26 | 42.70477 | -72.80326 | 23800 ft | 397 kts | 99° |
| 2026-05-05 23:26 | 42.70035 | -72.76579 | 23796 ft | 416 kts | 99° |
| 2026-05-05 23:26 | 42.69568 | -72.72630 | 23788 ft | 429 kts | 99° |
| 2026-05-05 23:27 | 42.69091 | -72.68599 | 23789 ft | 432 kts | 99° |
| 2026-05-05 23:27 | 42.68611 | -72.64566 | 23792 ft | 433 kts | 99° |
| 2026-05-05 23:27 | 42.68128 | -72.60519 | 23692 ft | 433 kts | 99° |
| 2026-05-05 23:27 | 42.67642 | -72.56482 | 23460 ft | 431 kts | 99° |
| 2026-05-05 23:28 | 42.67156 | -72.52472 | 23198 ft | 429 kts | 99° |
| 2026-05-05 23:28 | 42.66673 | -72.48485 | 22931 ft | 427 kts | 99° |
| 2026-05-05 23:28 | 42.66193 | -72.44550 | 22514 ft | 426 kts | 99° |
| 2026-05-05 23:28 | 42.65709 | -72.40623 | 22233 ft | 416 kts | 99° |
| 2026-05-05 23:29 | 42.65228 | -72.36752 | 21570 ft | 416 kts | 100° |
| 2026-05-05 23:29 | 42.64747 | -72.32870 | 21007 ft | 416 kts | 100° |
| 2026-05-05 23:29 | 42.64272 | -72.29004 | 20529 ft | 413 kts | 99° |
| 2026-05-05 23:29 | 42.63820 | -72.25162 | 20050 ft | 410 kts | 99° |
| 2026-05-05 23:30 | 42.63388 | -72.21387 | 19792 ft | 394 kts | 99° |
| 2026-05-05 23:30 | 42.62980 | -72.17797 | 19370 ft | 378 kts | 99° |
| 2026-05-05 23:30 | 42.62580 | -72.14306 | 18728 ft | 371 kts | 100° |
| 2026-05-05 23:30 | 42.62184 | -72.10888 | 18235 ft | 364 kts | 100° |
| 2026-05-05 23:31 | 42.61788 | -72.07494 | 17872 ft | 361 kts | 100° |
| 2026-05-05 23:31 | 42.61399 | -72.04160 | 17507 ft | 357 kts | 100° |
| 2026-05-05 23:31 | 42.61000 | -72.00842 | 17095 ft | 356 kts | 101° |
| 2026-05-05 23:31 | 42.60590 | -71.97534 | 16690 ft | 354 kts | 101° |
| 2026-05-05 23:32 | 42.60180 | -71.94250 | 16286 ft | 353 kts | 101° |
| 2026-05-05 23:32 | 42.59768 | -71.90962 | 15871 ft | 351 kts | 101° |
| 2026-05-05 23:32 | 42.59359 | -71.87697 | 15494 ft | 351 kts | 101° |
| 2026-05-05 23:32 | 42.58951 | -71.84442 | 15099 ft | 350 kts | 101° |
| 2026-05-05 23:33 | 42.58536 | -71.81198 | 14709 ft | 349 kts | 102° |
| 2026-05-05 23:33 | 42.58067 | -71.77969 | 14316 ft | 349 kts | 103° |
| 2026-05-05 23:33 | 42.57555 | -71.74753 | 13933 ft | 348 kts | 104° |
| 2026-05-05 23:33 | 42.57027 | -71.71544 | 13523 ft | 347 kts | 104° |
| 2026-05-05 23:34 | 42.56510 | -71.68399 | 13109 ft | 346 kts | 104° |
| 2026-05-05 23:34 | 42.55991 | -71.65220 | 12718 ft | 343 kts | 104° |
| 2026-05-05 23:34 | 42.55481 | -71.62066 | 12315 ft | 341 kts | 104° |
| 2026-05-05 23:34 | 42.54978 | -71.58936 | 11918 ft | 339 kts | 105° |
| 2026-05-05 23:35 | 42.54416 | -71.55861 | 11527 ft | 333 kts | 108° |
| 2026-05-05 23:35 | 42.53799 | -71.52849 | 11280 ft | 331 kts | 109° |
| 2026-05-05 23:35 | 42.53158 | -71.49863 | 10981 ft | 329 kts | 110° |
| 2026-05-05 23:35 | 42.52514 | -71.46886 | 10664 ft | 327 kts | 110° |
| 2026-05-05 23:36 | 42.51881 | -71.43930 | 10344 ft | 325 kts | 110° |
| 2026-05-05 23:36 | 42.51262 | -71.40998 | 10178 ft | 322 kts | 110° |
| 2026-05-05 23:36 | 42.50648 | -71.38081 | 10062 ft | 321 kts | 110° |
| 2026-05-05 23:36 | 42.50040 | -71.35171 | 9815 ft | 323 kts | 109° |
| 2026-05-05 23:37 | 42.49443 | -71.32231 | 9370 ft | 323 kts | 109° |
| 2026-05-05 23:37 | 42.48862 | -71.29302 | 8811 ft | 319 kts | 109° |
| 2026-05-05 23:37 | 42.48294 | -71.26421 | 8376 ft | 315 kts | 109° |
| 2026-05-05 23:37 | 42.47728 | -71.23560 | 7947 ft | 313 kts | 109° |
| 2026-05-05 23:38 | 42.47161 | -71.20720 | 7510 ft | 312 kts | 110° |
| 2026-05-05 23:38 | 42.46702 | -71.17887 | 7147 ft | 303 kts | 98° |
| 2026-05-05 23:38 | 42.46753 | -71.15127 | 6936 ft | 287 kts | 83° |
| 2026-05-05 23:38 | 42.47277 | -71.12551 | 6480 ft | 282 kts | 66° |
| 2026-05-05 23:39 | 42.48129 | -71.10221 | 6216 ft | 279 kts | 62° |
| 2026-05-05 23:39 | 42.49113 | -71.07892 | 5992 ft | 281 kts | 50° |
| 2026-05-05 23:39 | 42.50456 | -71.06064 | 5616 ft | 276 kts | 31° |
| 2026-05-05 23:39 | 42.52117 | -71.04844 | 5262 ft | 267 kts | 13° |
| 2026-05-05 23:40 | 42.53870 | -71.04006 | 4879 ft | 268 kts | 12° |
| 2026-05-05 23:40 | 42.55635 | -71.03184 | 4513 ft | 268 kts | 12° |
| 2026-05-05 23:40 | 42.57374 | -71.02376 | 4298 ft | 259 kts | 12° |
| 2026-05-05 23:40 | 42.59061 | -71.01588 | 4065 ft | 255 kts | 12° |
| 2026-05-05 23:41 | 42.60748 | -71.00810 | 3712 ft | 257 kts | 12° |
| 2026-05-05 23:41 | 42.62447 | -71.00032 | 3378 ft | 258 kts | 12° |
| 2026-05-05 23:41 | 42.64033 | -70.98863 | 3070 ft | 265 kts | 41° |
| 2026-05-05 23:41 | 42.65030 | -70.96769 | 2985 ft | 265 kts | 77° |
| 2026-05-05 23:42 | 42.65153 | -70.94350 | 2996 ft | 253 kts | 111° |
| 2026-05-05 23:42 | 42.64430 | -70.92312 | 2999 ft | 230 kts | 144° |
| 2026-05-05 23:42 | 42.63181 | -70.91207 | 3005 ft | 207 kts | 171° |
| 2026-05-05 23:42 | 42.61828 | -70.90614 | 2998 ft | 201 kts | 175° |
| 2026-05-05 23:43 | 42.60535 | -70.90100 | 2992 ft | 186 kts | 175° |
| 2026-05-05 23:43 | 42.59329 | -70.89763 | 2990 ft | 168 kts | 189° |
| 2026-05-05 23:43 | 42.58239 | -70.89947 | 3008 ft | 154 kts | 206° |
| 2026-05-05 23:43 | 42.57244 | -70.90427 | 3001 ft | 150 kts | 207° |
| 2026-05-05 23:44 | 42.56279 | -70.90896 | 2995 ft | 142 kts | 207° |
| 2026-05-05 23:44 | 42.55376 | -70.91333 | 2990 ft | 134 kts | 208° |
| 2026-05-05 23:44 | 42.54510 | -70.91756 | 2996 ft | 131 kts | 208° |
| 2026-05-05 23:44 | 42.53653 | -70.92175 | 2997 ft | 132 kts | 208° |
| 2026-05-05 23:45 | 42.52790 | -70.92596 | 2998 ft | 132 kts | 208° |
| 2026-05-05 23:45 | 42.51925 | -70.93017 | 2944 ft | 133 kts | 208° |
| 2026-05-05 23:45 | 42.51062 | -70.93437 | 2792 ft | 131 kts | 208° |
| 2026-05-05 23:45 | 42.50209 | -70.93851 | 2633 ft | 129 kts | 208° |
| 2026-05-05 23:46 | 42.49367 | -70.94261 | 2467 ft | 128 kts | 206° |
| 2026-05-05 23:46 | 42.48538 | -70.94664 | 2306 ft | 129 kts | 207° |
| 2026-05-05 23:46 | 42.47686 | -70.95079 | 2120 ft | 128 kts | 206° |
| 2026-05-05 23:46 | 42.46877 | -70.95470 | 1969 ft | 119 kts | 207° |
| 2026-05-05 23:47 | 42.46141 | -70.95825 | 1825 ft | 108 kts | 207° |
| 2026-05-05 23:47 | 42.45436 | -70.96171 | 1666 ft | 108 kts | 206° |
| 2026-05-05 23:47 | 42.44730 | -70.96514 | 1493 ft | 108 kts | 205° |
| 2026-05-05 23:47 | 42.44033 | -70.96852 | 1380 ft | 105 kts | 205° |
| 2026-05-05 23:48 | 42.43340 | -70.97196 | 1212 ft | 108 kts | 205° |
| 2026-05-05 23:48 | 42.42623 | -70.97543 | 1079 ft | 111 kts | 203° |
| 2026-05-05 23:48 | 42.41887 | -70.97900 | 926 ft | 113 kts | 203° |
| 2026-05-05 23:48 | 42.41135 | -70.98264 | 777 ft | 115 kts | 201° |
| 2026-05-05 23:49 | 42.40358 | -70.98647 | 677 ft | 121 kts | 201° |
| 2026-05-05 23:49 | 42.39555 | -70.99039 | 477 ft | 128 kts | 200° |
| 2026-05-05 23:49 | 42.38743 | -70.99427 | 327 ft | 123 kts | 202° |
| 2026-05-05 23:49 | 42.37945 | -70.99817 | 217 ft | 121 kts | 201° |
| 2026-05-05 23:50 | 42.37145 | -71.00204 | 37 ft | 121 kts | 200° |
| 2026-05-05 23:50 | 42.36521 | -71.00496 | 28 ft | 55 kts | 199° |
| 2026-05-05 23:50 | 42.36352 | -71.00578 | 27 ft | 17 kts | 200° |
| 2026-05-05 23:50 | 42.36240 | -71.00631 | 27 ft | 20 kts | 200° |
| 2026-05-05 23:51 | 42.36151 | -71.00749 | 23 ft | 15 kts | 256° |
| 2026-05-05 23:51 | 42.36168 | -71.00864 | 25 ft | 12 kts | 296° |
| 2026-05-05 23:51 | 42.36198 | -71.00956 | 25 ft | 10 kts | 294° |
| 2026-05-05 23:51 | 42.36230 | -71.01052 | 24 ft | 10 kts | 294° |
| 2026-05-05 23:52 | 42.36244 | -71.01094 | 26 ft | 0 kts | 294° |
| 2026-05-05 23:52 | 42.36255 | -71.01125 | 26 ft | 14 kts | 295° |
| 2026-05-05 23:52 | 42.36304 | -71.01242 | 25 ft | 10 kts | 301° |
| 2026-05-05 23:53 | 42.36336 | -71.01313 | 26 ft | 9 kts | 302° |
| 2026-05-05 23:53 | 42.36359 | -71.01365 | 22 ft | 10 kts | 298° |
| 2026-05-05 23:53 | 42.36301 | -71.01447 | 21 ft | 11 kts | 202° |
| 2026-05-05 23:53 | 42.36211 | -71.01491 | 24 ft | 16 kts | 200° |
| 2026-05-05 23:54 | 42.36143 | -71.01523 | 25 ft | 15 kts | 199° |
| 2026-05-05 23:54 | 42.36044 | -71.01572 | 28 ft | 16 kts | 199° |
| 2026-05-05 23:54 | 42.35944 | -71.01620 | 28 ft | 14 kts | 200° |
| 2026-05-05 23:54 | 42.35873 | -71.01655 | 28 ft | 12 kts | 200° |